Terminal Aerodrome Forecast
Issued by NWS

Current Version | Previous Version | Text Only | Print | Product List | Glossary On
Versions: 1 2 3 4 5 6 7 8 9 10 11 12 13 14 15 16 17 18
000
FTUS46 KSEW 231100
TAFHQM
TAF
KHQM 231120Z 2312/2412 19013G25KT P6SM -RA SCT020 OVC035
      TEMPO 2312/2315 4SM -RA BKN020 OVC035
     FM231500 22012G18KT P6SM -SHRA SCT020 BKN035
     FM232000 28006KT P6SM VCSH SCT035
     FM240300 07005KT P6SM BKN040=

USA.gov is the U.S. government's official web portal to all federal, state and local government web resources and services.